createdAt,value
2018-11-05T00:02:26.296Z,11.40
2018-11-05T00:04:55.296Z,11.40
2018-11-05T00:07:24.078Z,11.50
2018-11-05T00:09:53.031Z,11.40
2018-11-05T00:12:22.425Z,11.50
2018-11-05T00:14:51.234Z,11.50
2018-11-05T00:17:20.339Z,11.50
2018-11-05T00:19:48.991Z,11.50
2018-11-05T00:22:18.984Z,11.60
2018-11-05T00:24:47.809Z,11.60
2018-11-05T00:27:16.470Z,11.80
2018-11-05T00:29:45.596Z,11.80
2018-11-05T00:32:14.293Z,11.70
2018-11-05T00:34:42.957Z,11.70
2018-11-05T00:37:11.657Z,11.70
2018-11-05T00:39:40.262Z,11.60
2018-11-05T00:42:08.872Z,11.70
2018-11-05T00:44:37.644Z,11.60
2018-11-05T00:47:06.696Z,11.40
2018-11-05T00:49:36.574Z,11.40
2018-11-05T00:52:05.354Z,11.40
2018-11-05T00:54:34.249Z,11.40
2018-11-05T00:57:02.780Z,11.50
2018-11-05T00:59:31.431Z,11.50
2018-11-05T01:02:00.522Z,11.40
2018-11-05T01:04:29.230Z,11.50
2018-11-05T01:06:58.560Z,11.50
2018-11-05T01:09:27.272Z,11.40
2018-11-05T01:11:55.949Z,11.50
2018-11-05T01:14:24.524Z,11.40
2018-11-05T01:16:52.845Z,11.50
2018-11-05T01:19:21.643Z,11.50
2018-11-05T01:21:50.441Z,11.50
2018-11-05T01:24:18.994Z,11.40
2018-11-05T01:26:47.552Z,11.40
2018-11-05T01:29:16.188Z,11.40
2018-11-05T01:31:45.439Z,11.50
2018-11-05T01:34:14.246Z,11.60
2018-11-05T01:36:43.006Z,11.50
2018-11-05T01:39:14.605Z,11.40
2018-11-05T01:41:43.248Z,11.40
2018-11-05T01:44:12.311Z,11.50
2018-11-05T01:46:41.059Z,11.50
2018-11-05T01:49:09.760Z,11.40
2018-11-05T01:51:39.054Z,11.40
2018-11-05T01:54:14.374Z,11.40
2018-11-05T01:56:43.155Z,11.60
2018-11-05T01:59:11.989Z,11.60
2018-11-05T02:01:41.169Z,11.60
2018-11-05T02:04:09.857Z,11.60
2018-11-05T02:06:38.579Z,11.50
2018-11-05T02:09:07.732Z,11.60
2018-11-05T02:11:36.377Z,11.50
2018-11-05T02:14:04.763Z,11.50
2018-11-05T02:16:33.177Z,11.50
2018-11-05T02:19:01.821Z,11.50
2018-11-05T02:21:30.399Z,11.60
2018-11-05T02:23:58.905Z,11.60
2018-11-05T02:26:27.389Z,11.60
2018-11-05T02:28:55.714Z,11.60
2018-11-05T02:31:25.108Z,11.70
2018-11-05T02:33:53.486Z,11.70
2018-11-05T02:36:21.860Z,11.70
2018-11-05T02:38:50.523Z,11.70
2018-11-05T02:41:19.077Z,11.70
2018-11-05T02:43:47.968Z,11.60
2018-11-05T02:46:17.406Z,11.60
2018-11-05T02:48:45.912Z,11.70
2018-11-05T02:51:14.283Z,11.70
2018-11-05T02:53:42.932Z,11.70
2018-11-05T02:56:11.359Z,11.60
2018-11-05T02:58:39.793Z,11.70
2018-11-05T03:01:08.317Z,11.60
2018-11-05T03:03:39.657Z,11.60
2018-11-05T03:06:08.116Z,11.50
2018-11-05T03:08:36.700Z,11.50
2018-11-05T03:11:05.278Z,11.40
2018-11-05T03:13:33.635Z,11.50
2018-11-05T03:16:02.030Z,11.50
2018-11-05T03:18:30.422Z,11.40
2018-11-05T03:20:58.808Z,11.60
2018-11-05T03:23:27.165Z,11.70
2018-11-05T03:25:55.488Z,11.70
2018-11-05T03:28:32.299Z,11.70
2018-11-05T03:31:09.792Z,11.60
2018-11-05T03:36:20.678Z,11.80
2018-11-05T03:38:52.743Z,11.80
2018-11-05T03:41:27.648Z,11.70
2018-11-05T03:44:01.879Z,11.60
2018-11-05T03:46:33.406Z,11.60
2018-11-05T03:49:07.968Z,11.50
2018-11-05T03:51:43.292Z,11.40
2018-11-05T03:54:17.106Z,11.40
2018-11-05T03:56:58.901Z,11.40
2018-11-05T03:59:32.324Z,11.40
2018-11-05T04:02:07.940Z,11.40
2018-11-05T04:04:42.343Z,11.30
2018-11-05T04:07:19.320Z,11.30
2018-11-05T04:09:53.247Z,11.40
2018-11-05T04:12:24.396Z,11.40
2018-11-05T04:14:57.072Z,11.40
2018-11-05T04:17:29.138Z,11.40
2018-11-05T04:20:02.820Z,11.40
2018-11-05T04:22:37.244Z,11.40
2018-11-05T04:25:10.743Z,11.50
2018-11-05T04:27:42.406Z,11.40
2018-11-05T04:30:18.365Z,11.30
2018-11-05T04:32:50.554Z,11.40
2018-11-05T04:35:28.017Z,11.30
2018-11-05T04:38:13.410Z,11.30
2018-11-05T04:40:54.983Z,11.30
2018-11-05T04:43:27.929Z,11.30
2018-11-05T04:45:59.217Z,11.30
2018-11-05T04:48:33.229Z,11.30
2018-11-05T04:51:06.421Z,11.30
2018-11-05T04:53:35.927Z,11.30
2018-11-05T04:56:10.143Z,11.30
2018-11-05T04:58:41.286Z,11.30
2018-11-05T05:04:19.395Z,11.40
2018-11-05T05:06:50.049Z,11.40
2018-11-05T05:09:29.998Z,11.40
2018-11-05T05:12:13.700Z,11.30
2018-11-05T05:17:54.861Z,11.30
2018-11-05T05:20:28.026Z,11.40
2018-11-05T05:25:58.871Z,11.30
2018-11-05T05:28:28.224Z,11.40
2018-11-05T05:30:56.935Z,11.40
2018-11-05T05:33:25.594Z,11.30
2018-11-05T05:35:54.646Z,11.20
2018-11-05T05:38:23.439Z,11.30
2018-11-05T05:40:52.300Z,11.20
2018-11-05T05:43:20.905Z,11.40
2018-11-05T05:45:49.415Z,11.40
2018-11-05T05:48:18.085Z,11.40
2018-11-05T05:50:53.369Z,11.30
2018-11-05T05:53:22.260Z,11.30
2018-11-05T05:55:50.860Z,11.20
2018-11-05T05:58:19.829Z,11.30
2018-11-05T06:00:49.106Z,11.20
2018-11-05T06:03:18.190Z,11.30
2018-11-05T06:05:47.826Z,11.30
2018-11-05T06:08:16.668Z,11.20
2018-11-05T06:10:45.663Z,11.30
2018-11-05T06:13:14.377Z,11.30
2018-11-05T06:15:43.123Z,11.30
2018-11-05T06:18:11.836Z,11.30
2018-11-05T06:20:42.883Z,11.30
2018-11-05T06:23:11.527Z,11.30
2018-11-05T06:25:40.173Z,11.30
2018-11-05T06:28:09.073Z,11.20
2018-11-05T06:30:37.895Z,11.30
2018-11-05T06:33:06.834Z,11.20
2018-11-05T06:35:35.892Z,11.30
2018-11-05T06:38:05.579Z,11.40
2018-11-05T06:40:34.576Z,11.40
2018-11-05T06:43:03.421Z,11.40
2018-11-05T06:45:32.280Z,11.40
2018-11-05T06:48:12.680Z,11.30
2018-11-05T06:50:50.365Z,11.20
2018-11-05T06:53:28.279Z,11.30
2018-11-05T06:56:03.911Z,11.30
2018-11-05T06:58:40.592Z,11.30
2018-11-05T07:01:13.995Z,11.40
2018-11-05T07:06:35.945Z,11.30
2018-11-05T07:09:13.125Z,11.20
2018-11-05T07:11:48.774Z,11.20
2018-11-05T07:14:22.996Z,11.30
2018-11-05T07:16:56.181Z,11.30
2018-11-05T07:19:28.738Z,11.30
2018-11-05T07:22:05.736Z,11.40
2018-11-05T07:24:41.487Z,11.50
2018-11-05T07:27:24.036Z,11.40
2018-11-05T07:29:52.830Z,11.40
2018-11-05T07:32:21.324Z,11.30
2018-11-05T07:34:49.933Z,11.50
2018-11-05T07:37:19.388Z,11.30
2018-11-05T07:39:48.104Z,11.30
2018-11-05T07:42:16.819Z,11.40
2018-11-05T07:44:45.510Z,11.40
2018-11-05T07:47:14.544Z,11.40
2018-11-05T07:49:43.554Z,11.50
2018-11-05T07:52:12.659Z,11.50
2018-11-05T07:54:41.472Z,11.40
2018-11-05T07:57:10.846Z,11.40
2018-11-05T07:59:40.235Z,11.50
2018-11-05T08:02:15.416Z,11.60
2018-11-05T08:04:50.840Z,11.70
2018-11-05T08:07:30.158Z,11.80
2018-11-05T08:09:58.932Z,12.00
2018-11-05T08:12:27.823Z,11.90
2018-11-05T08:14:56.456Z,11.90
2018-11-05T08:17:25.212Z,11.80
2018-11-05T08:19:54.043Z,11.80
2018-11-05T08:22:22.576Z,11.80
2018-11-05T08:24:51.451Z,11.80
2018-11-05T08:27:20.221Z,11.80
2018-11-05T08:29:48.947Z,11.80
2018-11-05T08:32:17.659Z,11.90
2018-11-05T08:34:46.541Z,12.00
2018-11-05T08:37:15.395Z,12.00
2018-11-05T08:39:44.338Z,12.20
2018-11-05T08:42:13.069Z,12.30
2018-11-05T08:44:41.713Z,12.20
2018-11-05T08:47:10.562Z,12.10
2018-11-05T08:49:39.309Z,12.10
2018-11-05T08:52:08.405Z,12.10
2018-11-05T08:54:37.029Z,12.20
2018-11-05T08:57:06.240Z,12.30
2018-11-05T08:59:34.973Z,12.40
2018-11-05T09:02:03.738Z,12.40
2018-11-05T09:04:32.538Z,12.60
2018-11-05T09:07:01.136Z,12.70
2018-11-05T09:09:29.923Z,12.50
2018-11-05T09:11:58.782Z,12.50
2018-11-05T09:14:27.408Z,12.50
2018-11-05T09:16:57.132Z,12.40
2018-11-05T09:19:25.806Z,12.30
2018-11-05T09:21:55.499Z,12.20
2018-11-05T09:24:24.419Z,12.20
2018-11-05T09:26:53.173Z,12.10
2018-11-05T09:29:21.872Z,12.10
2018-11-05T09:31:50.588Z,12.10
2018-11-05T09:34:19.275Z,12.20
2018-11-05T09:36:48.036Z,12.30
2018-11-05T09:39:16.787Z,12.30
2018-11-05T09:41:45.397Z,12.50
2018-11-05T09:44:14.085Z,12.50
2018-11-05T09:46:42.803Z,12.50
2018-11-05T09:49:11.612Z,12.40
2018-11-05T09:51:40.474Z,12.30
2018-11-05T09:54:09.346Z,12.30
2018-11-05T09:56:38.243Z,12.20
2018-11-05T09:59:07.054Z,12.20
2018-11-05T10:01:35.896Z,12.20
2018-11-05T10:04:04.732Z,12.20
2018-11-05T10:06:33.281Z,12.30
2018-11-05T10:09:01.992Z,12.30
2018-11-05T10:11:30.554Z,12.50
2018-11-05T10:13:59.187Z,12.60
2018-11-05T10:16:27.945Z,12.90
2018-11-05T10:19:00.313Z,13.10
2018-11-05T10:21:29.014Z,13.20
2018-11-05T10:23:58.432Z,13.20
2018-11-05T10:26:27.399Z,13.30
2018-11-05T10:28:56.310Z,13.30
2018-11-05T10:31:30.302Z,13.40
2018-11-05T10:33:59.035Z,13.60
2018-11-05T10:36:27.844Z,13.80
2018-11-05T10:38:56.564Z,13.90
2018-11-05T10:41:25.719Z,14.10
2018-11-05T10:43:54.498Z,14.10
2018-11-05T10:46:23.157Z,14.00
2018-11-05T10:48:51.818Z,14.00
2018-11-05T10:51:20.561Z,14.10
2018-11-05T10:53:49.278Z,14.20
2018-11-05T10:56:17.977Z,14.10
2018-11-05T10:58:46.771Z,14.10
2018-11-05T11:01:16.289Z,14.10
2018-11-05T11:03:50.420Z,14.00
2018-11-05T11:06:19.166Z,14.10
2018-11-05T11:08:47.970Z,14.10
2018-11-05T11:11:16.890Z,14.20
2018-11-05T11:13:45.516Z,14.20
2018-11-05T11:16:14.228Z,14.20
2018-11-05T11:18:42.872Z,14.40
2018-11-05T11:21:11.625Z,14.40
2018-11-05T11:23:40.609Z,14.50
2018-11-05T11:26:09.431Z,14.50
2018-11-05T11:28:44.711Z,14.40
2018-11-05T11:31:13.445Z,14.30
2018-11-05T11:33:42.596Z,14.30
2018-11-05T11:36:11.737Z,14.20
2018-11-05T11:38:40.457Z,14.30
2018-11-05T11:41:09.066Z,14.30
2018-11-05T11:43:37.634Z,14.40
2018-11-05T11:46:06.890Z,14.30
2018-11-05T11:48:35.529Z,14.40
2018-11-05T11:51:04.138Z,14.40
2018-11-05T11:53:33.477Z,14.40
2018-11-05T11:56:02.232Z,14.40
2018-11-05T11:58:30.942Z,14.40
2018-11-05T12:00:59.761Z,14.40
2018-11-05T12:03:28.564Z,14.40
2018-11-05T12:05:57.232Z,14.50
2018-11-05T12:08:26.138Z,14.50
2018-11-05T12:10:54.792Z,14.60
2018-11-05T12:13:23.429Z,14.60
2018-11-05T12:15:53.182Z,14.60
2018-11-05T12:18:22.622Z,14.60
2018-11-05T12:20:51.284Z,14.60
2018-11-05T12:23:21.095Z,14.70
2018-11-05T12:25:50.523Z,14.70
2018-11-05T12:28:19.426Z,14.80
2018-11-05T12:30:49.062Z,14.80
2018-11-05T12:33:18.724Z,15.00
2018-11-05T12:35:47.512Z,15.10
2018-11-05T12:38:17.149Z,15.20
2018-11-05T12:40:45.780Z,15.10
2018-11-05T12:43:14.533Z,15.00
2018-11-05T12:45:43.265Z,15.00
2018-11-05T12:48:12.275Z,14.90
2018-11-05T12:50:41.000Z,15.00
2018-11-05T12:53:09.852Z,14.90
2018-11-05T12:55:38.503Z,15.00
2018-11-05T13:00:42.468Z,14.80
2018-11-05T13:03:11.287Z,14.70
2018-11-05T13:05:41.565Z,14.70
2018-11-05T13:08:10.272Z,14.70
2018-11-05T13:10:38.943Z,14.60
2018-11-05T13:13:07.717Z,14.60
2018-11-05T13:15:36.445Z,14.50
2018-11-05T13:18:05.113Z,14.40
2018-11-05T13:20:34.531Z,14.30
2018-11-05T13:23:03.252Z,14.30
2018-11-05T13:25:31.892Z,14.40
2018-11-05T13:28:00.570Z,14.30
2018-11-05T13:30:29.248Z,14.30
2018-11-05T13:33:01.602Z,14.30
2018-11-05T13:35:30.438Z,14.30
2018-11-05T13:37:59.689Z,14.30
2018-11-05T13:40:28.218Z,14.40
2018-11-05T13:42:56.883Z,14.40
2018-11-05T13:45:25.794Z,14.50
2018-11-05T13:47:55.430Z,14.60
2018-11-05T13:50:23.976Z,14.60
2018-11-05T13:52:52.512Z,14.60
2018-11-05T13:55:21.271Z,14.60
2018-11-05T13:57:49.961Z,14.60
2018-11-05T14:00:20.108Z,14.50
2018-11-05T14:02:49.201Z,14.40
2018-11-05T14:05:19.672Z,14.40
2018-11-05T14:07:49.296Z,14.30
2018-11-05T14:10:21.200Z,14.30
2018-11-05T14:12:50.366Z,14.40
2018-11-05T14:15:19.046Z,14.30
2018-11-05T14:17:47.906Z,14.20
2018-11-05T14:20:17.847Z,14.20
2018-11-05T14:22:46.649Z,14.20
2018-11-05T14:25:16.674Z,14.10
2018-11-05T14:27:46.936Z,14.00
2018-11-05T14:30:15.544Z,14.00
2018-11-05T14:32:46.019Z,14.00
2018-11-05T14:35:14.885Z,13.90
2018-11-05T14:37:51.358Z,13.90
2018-11-05T14:40:21.479Z,13.90
2018-11-05T14:44:03.603Z,13.90
2018-11-05T14:46:33.346Z,13.80
2018-11-05T14:49:03.888Z,13.70
2018-11-05T14:51:35.383Z,13.70
2018-11-05T14:54:04.847Z,13.70
2018-11-05T14:56:34.183Z,13.60
2018-11-05T14:59:32.467Z,13.60
2018-11-05T15:02:11.179Z,13.50
2018-11-05T15:04:53.423Z,13.40
2018-11-05T15:07:22.230Z,13.30
2018-11-05T15:09:51.082Z,13.30
2018-11-05T15:12:21.170Z,13.30
2018-11-05T15:14:50.059Z,13.20
2018-11-05T15:17:32.270Z,13.20
2018-11-05T15:20:01.564Z,13.10
2018-11-05T15:22:53.026Z,12.90
2018-11-05T15:25:22.306Z,12.80
2018-11-05T15:28:05.089Z,12.60
2018-11-05T15:30:35.731Z,12.60
2018-11-05T15:33:48.536Z,12.50
2018-11-05T15:36:33.624Z,12.60
2018-11-05T15:39:12.551Z,12.50
2018-11-05T15:41:41.289Z,12.40
2018-11-05T15:44:10.047Z,12.40
2018-11-05T15:46:39.068Z,12.30
2018-11-05T15:49:07.939Z,12.20
2018-11-05T15:51:36.884Z,12.20
2018-11-05T15:54:06.632Z,12.00
2018-11-05T15:56:35.505Z,11.90
2018-11-05T15:59:04.263Z,11.80
2018-11-05T16:04:42.184Z,11.70
2018-11-05T16:07:11.092Z,11.80
2018-11-05T16:09:40.667Z,12.00
2018-11-05T16:12:10.041Z,12.00
2018-11-05T16:14:39.401Z,12.10
2018-11-05T16:17:08.245Z,12.20
2018-11-05T16:19:36.978Z,12.30
2018-11-05T16:22:06.265Z,12.30
2018-11-05T16:24:36.120Z,12.30
2018-11-05T16:27:09.442Z,12.20
2018-11-05T16:29:38.572Z,12.20
2018-11-05T16:32:07.391Z,12.30
2018-11-05T16:34:36.874Z,12.30
2018-11-05T16:37:13.140Z,12.20
2018-11-05T16:39:42.016Z,12.10
2018-11-05T16:42:16.834Z,12.10
2018-11-05T16:44:45.459Z,12.10
2018-11-05T16:47:14.043Z,12.10
2018-11-05T16:49:42.600Z,12.10
2018-11-05T16:52:11.613Z,12.10
2018-11-05T16:54:40.304Z,12.10
2018-11-05T16:57:08.978Z,12.00
2018-11-05T16:59:37.945Z,12.00
2018-11-05T17:02:12.932Z,12.00
2018-11-05T17:04:41.718Z,12.10
2018-11-05T17:07:10.778Z,12.00
2018-11-05T17:09:39.460Z,12.20
2018-11-05T17:12:08.476Z,12.20
2018-11-05T17:14:39.306Z,12.10
2018-11-05T17:17:14.621Z,12.10
2018-11-05T17:19:51.260Z,12.10
2018-11-05T17:22:20.126Z,12.10
2018-11-05T17:24:49.128Z,12.10
2018-11-05T17:27:17.886Z,12.00
2018-11-05T17:29:46.596Z,12.00
2018-11-05T17:32:15.435Z,12.10
2018-11-05T17:34:44.653Z,12.10
2018-11-05T17:37:13.543Z,12.20
2018-11-05T17:39:42.410Z,12.20
2018-11-05T17:42:11.707Z,12.20
2018-11-05T17:44:40.644Z,12.20
2018-11-05T17:47:09.632Z,12.10
2018-11-05T17:49:38.712Z,12.20
2018-11-05T17:52:07.585Z,12.20
2018-11-05T17:54:36.442Z,12.20
2018-11-05T17:57:05.268Z,12.20
2018-11-05T17:59:34.097Z,12.20
2018-11-05T18:02:03.021Z,12.10
2018-11-05T18:04:31.968Z,12.10
2018-11-05T18:07:00.912Z,12.10
2018-11-05T18:09:29.928Z,12.10
2018-11-05T18:11:59.326Z,12.10
2018-11-05T18:14:29.799Z,12.10
2018-11-05T18:16:58.642Z,12.00
2018-11-05T18:19:34.205Z,11.90
2018-11-05T18:22:02.999Z,12.00
2018-11-05T18:24:31.906Z,11.90
2018-11-05T18:27:00.699Z,11.80
2018-11-05T18:29:29.550Z,11.80
2018-11-05T18:31:58.331Z,11.80
2018-11-05T18:34:27.126Z,11.80
2018-11-05T18:37:02.207Z,11.80
2018-11-05T18:39:31.809Z,11.80
2018-11-05T18:42:00.588Z,11.80
2018-11-05T18:44:29.499Z,11.80
2018-11-05T18:46:59.093Z,11.90
2018-11-05T18:49:27.889Z,11.80
2018-11-05T18:51:56.845Z,11.80
2018-11-05T18:54:25.769Z,11.80
2018-11-05T18:56:54.652Z,11.70
2018-11-05T18:59:23.516Z,11.80
2018-11-05T19:01:52.983Z,11.60
2018-11-05T19:04:21.744Z,11.60
2018-11-05T19:06:51.195Z,11.60
2018-11-05T19:09:19.989Z,11.50
2018-11-05T19:11:48.841Z,11.40
2018-11-05T19:14:18.041Z,11.30
2018-11-05T19:16:47.137Z,11.30
2018-11-05T19:19:16.700Z,11.20
2018-11-05T19:21:45.434Z,11.30
2018-11-05T19:24:14.412Z,11.30
2018-11-05T19:26:43.418Z,11.30
2018-11-05T19:29:12.340Z,11.30
2018-11-05T19:31:42.046Z,11.30
2018-11-05T19:34:10.775Z,11.40
2018-11-05T19:36:40.282Z,11.50
2018-11-05T19:39:10.970Z,11.40
2018-11-05T19:41:40.337Z,11.60
2018-11-05T19:44:09.796Z,11.50
2018-11-05T19:46:39.008Z,11.50
2018-11-05T19:49:08.193Z,11.50
2018-11-05T19:51:37.079Z,11.30
2018-11-05T19:54:07.425Z,11.30
2018-11-05T19:56:36.503Z,11.30
2018-11-05T19:59:06.100Z,11.30
2018-11-05T20:01:42.156Z,11.30
2018-11-05T20:04:22.944Z,11.40
2018-11-05T20:06:51.662Z,11.40
2018-11-05T20:09:29.973Z,11.30
2018-11-05T20:11:58.687Z,11.40
2018-11-05T20:14:27.629Z,11.50
2018-11-05T20:16:56.664Z,11.60
2018-11-05T20:19:25.419Z,11.60
2018-11-05T20:21:54.393Z,11.60
2018-11-05T20:24:23.944Z,11.60
2018-11-05T20:26:52.739Z,11.60
2018-11-05T20:29:22.390Z,11.60
2018-11-05T20:31:52.285Z,11.60
2018-11-05T20:34:21.059Z,11.50
2018-11-05T20:36:49.636Z,11.50
2018-11-05T20:39:18.371Z,11.40
2018-11-05T20:41:47.203Z,11.50
2018-11-05T20:44:16.058Z,11.60
2018-11-05T20:46:45.447Z,11.50
2018-11-05T20:49:14.258Z,11.50
2018-11-05T20:51:43.045Z,11.40
2018-11-05T20:54:12.413Z,11.30
2018-11-05T20:56:41.370Z,11.40
2018-11-05T20:59:11.111Z,11.20
2018-11-05T21:01:39.823Z,11.20
2018-11-05T21:07:25.764Z,11.30
2018-11-05T21:10:22.827Z,11.30
2018-11-05T21:15:25.136Z,11.30
2018-11-05T21:17:54.429Z,11.30
2018-11-05T21:20:36.336Z,11.40
2018-11-05T21:23:28.810Z,11.50
2018-11-05T21:25:57.507Z,11.60
2018-11-05T21:28:26.203Z,11.50
2018-11-05T21:30:54.940Z,11.40
2018-11-05T21:33:23.658Z,11.50
2018-11-05T21:35:52.340Z,11.50
2018-11-05T21:38:22.487Z,11.50
2018-11-05T21:40:51.223Z,11.50
2018-11-05T21:43:20.396Z,11.50
2018-11-05T21:45:49.103Z,11.40
2018-11-05T21:48:17.840Z,11.40
2018-11-05T21:50:46.448Z,11.40
2018-11-05T21:53:15.103Z,11.30
2018-11-05T21:55:51.548Z,11.40
2018-11-05T21:58:22.689Z,11.40
2018-11-05T22:00:51.272Z,11.40
2018-11-05T22:03:20.098Z,11.30
2018-11-05T22:05:49.078Z,11.40
2018-11-05T22:08:17.722Z,11.50
2018-11-05T22:10:46.297Z,11.50
2018-11-05T22:13:14.952Z,11.50
2018-11-05T22:15:45.672Z,11.60
2018-11-05T22:18:15.013Z,11.70
2018-11-05T22:20:43.631Z,11.70
2018-11-05T22:23:15.299Z,11.70
2018-11-05T22:25:43.994Z,11.80
2018-11-05T22:28:12.721Z,11.70
2018-11-05T22:30:41.426Z,11.70
2018-11-05T22:33:10.085Z,11.70
2018-11-05T22:35:38.710Z,11.70
2018-11-05T22:38:07.396Z,11.60
2018-11-05T22:40:36.017Z,11.60
2018-11-05T22:43:04.881Z,11.60
2018-11-05T22:45:33.510Z,11.60
2018-11-05T22:48:02.153Z,11.70
2018-11-05T22:50:30.862Z,11.60
2018-11-05T22:52:59.549Z,11.60
2018-11-05T22:55:28.198Z,11.50
2018-11-05T22:57:56.830Z,11.50
2018-11-05T23:00:30.545Z,11.60
2018-11-05T23:03:04.512Z,11.60
2018-11-05T23:05:33.383Z,11.50
2018-11-05T23:08:02.254Z,11.50
2018-11-05T23:10:30.877Z,11.50
2018-11-05T23:12:59.453Z,11.50
2018-11-05T23:15:28.113Z,11.40
2018-11-05T23:17:56.761Z,11.50
2018-11-05T23:20:25.357Z,11.40
2018-11-05T23:22:53.978Z,11.40
2018-11-05T23:25:22.549Z,11.40
2018-11-05T23:27:51.188Z,11.30
2018-11-05T23:30:19.749Z,11.30
2018-11-05T23:32:48.295Z,11.40
2018-11-05T23:35:16.881Z,11.50
2018-11-05T23:37:45.456Z,11.60
2018-11-05T23:40:14.024Z,11.60
2018-11-05T23:42:42.565Z,11.70
2018-11-05T23:45:13.085Z,11.60
2018-11-05T23:47:41.591Z,11.60
2018-11-05T23:50:10.446Z,11.60
2018-11-05T23:52:55.444Z,11.60
2018-11-05T23:55:23.782Z,11.60
2018-11-05T23:57:52.141Z,11.60
